NCAR-RAP Real-Time Weather Data

Output produced by METARs form (06 May 2021  16:01 UTC)
found at http://weather.rap.ucar.edu/surface/
 
KHOU 061553Z 06010KT 10SM CLR 25/13 A3017 RMK AO2 SLP222 T02500133
KHOU 061453Z 04012KT 10SM CLR 24/13 A3018 RMK AO2 SLP224 T02390133 50009
KHOU 061353Z 04011KT 10SM CLR 23/14 A3018 RMK AO2 SLP225 T02280139
KHOU 061253Z 05008KT 10SM CLR 21/14 A3017 RMK AO2 SLP220 T02060144
KHOU 061153Z 04007KT 10SM CLR 19/15 A3015 RMK AO2 SLP215 T01940150 10217 20189 53018
KHOU 061053Z 05008KT 10SM CLR 19/16 A3012 RMK AO2 SLP205 T01940156
KHOU 060953Z 07005KT 10SM CLR 19/16 A3011 RMK AO2 SLP200 T01940156
KHOU 060853Z 07006KT 10SM CLR 19/15 A3010 RMK AO2 SLP197 T01940150 53002
KHOU 060753Z 09003KT 10SM CLR 21/15 A3009 RMK AO2 SLP194 T02060150
KHOU 060653Z 05005KT 10SM CLR 21/15 A3010 RMK AO2 SLP196 T02110150
KHOU 060553Z 06004KT 10SM CLR 22/15 A3009 RMK AO2 SLP195 T02170150 10283 20217 402940172 51014
KHOU 060453Z 05004KT 10SM CLR 22/15 A3009 RMK AO2 SLP194 T02220150
KHOU 060353Z 07005KT 10SM CLR 23/14 A3008 RMK AO2 SLP190 T02330144
KHOU 060253Z 07007KT 10SM CLR 24/15 A3005 RMK AO2 SLP182 T02440150 53014
KHOU 060153Z 06007KT 10SM CLR 26/14 A3004 RMK AO2 SLP175 T02560144